Time;durP1;ratioP1;P1;durP2;ratioP2;P2;SDS_P1;SDS_P2;PMS_P1;PMS_P2;Temp;Humidity;BMP_temperature;BMP_pressure;BME280_temperature;BME280_humidity;BME280_pressure;Samples;Min_cycle;Max_cycle;Signal;HPM_P1;HPM_P2
2022/04/17 00:01:03;;;;;;;2.25;1.30;;;1.30;99.90;1.40;98925.00;;;;4632798;30;86850;-64
2022/04/17 00:03:30;;;;;;;2.13;1.33;;;1.20;99.90;1.40;98931.00;;;;4636301;30;87361;-64
2022/04/17 00:05:57;;;;;;;4.07;1.60;;;1.20;99.90;1.40;98943.00;;;;4631856;30;88189;-64
2022/04/17 00:08:23;;;;;;;2.47;1.48;;;1.20;99.90;1.40;98921.00;;;;4631943;30;87905;-63
2022/04/17 00:10:50;;;;;;;2.10;1.40;;;1.20;99.90;1.40;98926.00;;;;4633432;30;86938;-63
2022/04/17 00:13:16;;;;;;;3.25;1.40;;;1.20;99.90;1.40;98941.00;;;;4643157;30;87334;-63
2022/04/17 00:15:43;;;;;;;2.22;1.33;;;1.20;99.90;1.40;98928.00;;;;4633857;30;88581;-63
2022/04/17 00:18:10;;;;;;;3.20;1.25;;;1.20;99.90;1.40;98934.00;;;;4632612;30;87327;-64
2022/04/17 00:20:39;;;;;;;1.95;1.20;;;1.20;99.90;1.40;98927.00;;;;4633200;30;86873;-63
2022/04/17 00:23:06;;;;;;;2.05;1.27;;;1.20;99.90;1.40;98945.00;;;;4637446;30;87045;-64
2022/04/17 00:25:34;;;;;;;2.78;1.50;;;1.20;99.90;1.40;98968.00;;;;4643037;30;87679;-62
2022/04/17 00:28:00;;;;;;;2.33;1.23;;;1.10;99.90;1.30;98990.00;;;;4639256;30;87061;-62
2022/04/17 00:30:26;;;;;;;3.53;1.27;;;1.10;99.90;1.30;98954.00;;;;4636083;30;87010;-59
2022/04/17 00:32:52;;;;;;;2.30;1.30;;;1.10;99.90;1.30;98941.00;;;;4633906;30;87986;-57
2022/04/17 00:35:18;;;;;;;5.35;1.45;;;1.10;99.90;1.30;98943.00;;;;4634386;30;88992;-58
2022/04/17 00:37:45;;;;;;;2.97;1.50;;;1.10;99.90;1.30;98971.00;;;;4634001;30;90581;-59
2022/04/17 00:40:12;;;;;;;2.65;1.10;;;1.10;99.90;1.30;98986.00;;;;4634994;30;87943;-60
2022/04/17 00:42:40;;;;;;;4.03;1.40;;;1.10;99.90;1.30;98953.00;;;;4634921;30;87586;-57
2022/04/17 00:45:07;;;;;;;3.85;1.65;;;1.10;99.90;1.30;98955.00;;;;4634426;30;87742;-59
2022/04/17 00:47:34;;;;;;;2.58;1.33;;;1.10;99.90;1.20;98939.00;;;;4635669;30;87206;-57
2022/04/17 00:50:02;;;;;;;2.28;1.20;;;1.10;99.90;1.20;98958.00;;;;4634945;30;86962;-61
2022/04/17 00:52:29;;;;;;;2.67;1.20;;;1.00;99.90;1.20;98952.00;;;;4634329;30;87066;-61
2022/04/17 00:54:57;;;;;;;2.78;1.10;;;1.00;99.90;1.10;98953.00;;;;4634138;30;88245;-62
2022/04/17 00:57:23;;;;;;;3.47;1.27;;;1.00;99.90;1.20;98945.00;;;;4619620;30;88705;-63
2022/04/17 00:59:51;;;;;;;1.85;1.08;;;1.00;99.90;1.20;98961.00;;;;4635321;30;87273;-64
2022/04/17 01:02:17;;;;;;;2.08;1.00;;;1.00;99.90;1.20;98947.00;;;;4634344;30;87444;-62
2022/04/17 01:04:45;;;;;;;2.35;1.20;;;0.90;99.90;1.10;98937.00;;;;4634764;30;87631;-62
2022/04/17 01:07:13;;;;;;;2.13;1.13;;;0.90;99.90;1.10;98955.00;;;;4634900;30;88407;-59
2022/04/17 01:09:39;;;;;;;5.25;1.50;;;0.90;99.90;1.10;98935.00;;;;4634986;30;87039;-58
2022/04/17 01:12:10;;;;;;;2.55;1.33;;;0.90;99.90;1.10;98935.00;;;;4639746;30;87173;-59
2022/04/17 01:14:38;;;;;;;2.60;1.27;;;0.90;99.90;1.00;98953.00;;;;4644002;30;86979;-59
2022/04/17 01:17:06;;;;;;;2.60;1.33;;;0.90;99.90;1.00;98935.00;;;;4633868;30;87475;-54
2022/04/17 01:19:37;;;;;;;2.03;1.30;;;0.80;99.90;1.00;98956.00;;;;4635360;30;87000;-58
2022/04/17 01:22:11;;;;;;;2.88;1.20;;;0.80;99.90;1.00;98963.00;;;;4633488;30;87902;-58
2022/04/17 01:27:25;;;;;;;3.08;1.33;;;0.80;99.90;1.00;98936.00;;;;4646393;30;87422;-57
2022/04/17 01:29:53;;;;;;;1.25;1.00;;;0.80;99.90;1.00;98944.00;;;;4619737;30;87185;-59
2022/04/17 01:32:19;;;;;;;2.50;1.10;;;0.80;99.90;1.00;98952.00;;;;4634313;30;87185;-58
2022/04/17 01:34:46;;;;;;;3.15;1.20;;;0.80;99.90;1.00;98951.00;;;;4633378;30;88925;-59
2022/04/17 01:37:13;;;;;;;2.65;1.40;;;0.80;99.90;1.00;98959.00;;;;4633592;30;87313;-59
2022/04/17 01:39:40;;;;;;;3.15;1.58;;;0.80;99.90;0.90;98965.00;;;;4633053;30;86569;-59
2022/04/17 01:42:06;;;;;;;2.72;1.08;;;0.70;99.90;0.90;98951.00;;;;4632466;30;87105;-58
2022/04/17 01:44:33;;;;;;;1.90;1.15;;;0.70;99.90;0.90;98939.00;;;;4633609;30;87758;-59
2022/04/17 01:47:02;;;;;;;2.75;1.33;;;0.80;99.90;0.90;98945.00;;;;4632905;30;88339;-58
2022/04/17 01:49:28;;;;;;;2.95;1.00;;;0.70;99.90;0.80;98969.00;;;;4634167;30;87022;-57
2022/04/17 01:51:55;;;;;;;3.08;1.15;;;0.70;99.90;0.80;98947.00;;;;4633936;30;87122;-59
2022/04/17 01:54:23;;;;;;;2.25;1.27;;;0.70;99.90;0.80;98966.00;;;;4619147;30;88048;-57
2022/04/17 01:56:49;;;;;;;2.08;1.27;;;0.70;99.90;0.80;98943.00;;;;4633239;30;87896;-64
2022/04/17 01:59:21;;;;;;;3.40;1.30;;;0.60;99.90;0.80;98942.00;;;;4634489;30;87947;-64
2022/04/17 02:01:48;;;;;;;2.63;1.10;;;0.60;99.90;0.80;98921.00;;;;4634193;30;87163;-64
2022/04/17 02:04:15;;;;;;;3.05;1.02;;;0.60;99.90;0.80;98929.00;;;;4634792;30;87999;-64
2022/04/17 02:06:42;;;;;;;3.55;1.33;;;0.60;99.90;0.80;98933.00;;;;4633640;30;87392;-64
2022/04/17 02:09:14;;;;;;;2.08;1.20;;;0.60;99.90;0.80;98940.00;;;;4633112;30;87043;-62
2022/04/17 02:11:42;;;;;;;2.28;1.00;;;0.60;99.90;0.70;98934.00;;;;4637607;30;88375;-62
2022/04/17 02:14:10;;;;;;;2.67;1.15;;;0.50;99.90;0.70;98925.00;;;;4647515;30;87578;-58
2022/04/17 02:16:37;;;;;;;4.57;1.20;;;0.60;99.90;0.70;98937.00;;;;4622243;30;88479;-59
2022/04/17 02:19:03;;;;;;;2.35;1.17;;;0.60;99.90;0.70;98945.00;;;;4634228;30;87413;-57
2022/04/17 02:21:30;;;;;;;3.67;1.45;;;0.50;99.90;0.70;98930.00;;;;4634082;30;86958;-59
2022/04/17 02:23:59;;;;;;;2.28;1.17;;;0.50;99.90;0.60;98938.00;;;;4643285;30;87395;-59
2022/04/17 02:26:25;;;;;;;3.53;1.55;;;0.40;99.90;0.60;98942.00;;;;4649061;30;87568;-59
2022/04/17 02:28:51;;;;;;;2.25;1.13;;;0.40;99.90;0.50;98943.00;;;;4635376;30;86308;-59
2022/04/17 02:31:17;;;;;;;3.25;1.17;;;0.40;99.90;0.50;98946.00;;;;4634040;30;87110;-58
2022/04/17 02:33:44;;;;;;;5.22;1.30;;;0.40;99.90;0.50;98935.00;;;;4633125;30;88187;-59
2022/04/17 02:36:10;;;;;;;2.13;1.05;;;0.40;99.90;0.50;98972.00;;;;4632433;30;87960;-59
2022/04/17 02:38:36;;;;;;;1.88;1.10;;;0.40;99.90;0.60;98940.00;;;;4633038;30;86986;-58
2022/04/17 02:41:02;;;;;;;2.58;1.00;;;0.30;99.90;0.50;98933.00;;;;4633388;30;87189;-57
2022/04/17 02:43:28;;;;;;;4.75;1.10;;;0.30;99.90;0.50;98928.00;;;;4632553;30;88824;-56
2022/04/17 02:45:54;;;;;;;2.67;1.25;;;0.40;99.90;0.50;98959.00;;;;4633082;30;88463;-57
2022/04/17 02:48:22;;;;;;;6.18;1.42;;;0.30;99.90;0.40;98936.00;;;;4633301;30;87055;-54
2022/04/17 02:50:48;;;;;;;4.85;1.55;;;0.30;99.90;0.50;98946.00;;;;4633142;30;87431;-56
2022/04/17 02:53:16;;;;;;;3.22;1.40;;;0.30;99.90;0.50;98959.00;;;;4633927;30;88192;-60
2022/04/17 02:55:44;;;;;;;4.93;1.38;;;0.30;99.90;0.40;98917.00;;;;4618365;30;87731;-56
2022/04/17 02:58:13;;;;;;;3.30;1.30;;;0.30;99.90;0.50;98965.00;;;;4632426;30;87053;-64
2022/04/17 03:05:36;;;;;;;2.65;1.20;;;0.30;99.90;0.40;98938.00;;;;4630076;30;88027;-64
2022/04/17 03:06:14;;;;;;;2.30;1.17;;;0.30;99.90;0.40;98959.00;;;;4632830;30;88387;-64
2022/04/17 03:08:42;;;;;;;4.88;1.30;;;0.20;99.90;0.40;98948.00;;;;4633114;30;87580;-64
2022/04/17 03:11:10;;;;;;;1.83;1.23;;;0.30;99.90;0.40;98964.00;;;;4634293;30;87027;-63
2022/04/17 03:13:36;;;;;;;1.83;1.13;;;0.30;99.90;0.40;98964.00;;;;4647103;30;90434;-64
2022/04/17 03:16:02;;;;;;;1.95;1.17;;;0.30;99.90;0.40;98967.00;;;;4641830;30;87066;-63
2022/04/17 03:18:29;;;;;;;2.00;1.30;;;0.20;99.90;0.40;98946.00;;;;4633882;30;86746;-65
2022/04/17 03:20:55;;;;;;;4.30;1.33;;;0.30;99.90;0.40;98960.00;;;;4633651;30;87101;-64
2022/04/17 03:23:21;;;;;;;3.42;1.48;;;0.30;99.90;0.50;98960.00;;;;4633415;30;87118;-64
2022/04/17 03:25:47;;;;;;;2.92;1.33;;;0.30;99.90;0.50;98962.00;;;;4647387;30;87924;-64
2022/04/17 03:28:13;;;;;;;3.47;1.25;;;0.30;99.90;0.50;98968.00;;;;4639844;30;86980;-64
2022/04/17 03:30:39;;;;;;;2.72;1.15;;;0.30;99.90;0.50;98967.00;;;;4632907;30;87250;-64
2022/04/17 03:33:05;;;;;;;2.33;1.20;;;0.30;99.90;0.50;99000.00;;;;4632250;30;88827;-64
2022/04/17 03:35:32;;;;;;;2.05;1.23;;;0.30;99.90;0.40;99011.00;;;;4631859;30;87520;-64
2022/04/17 03:37:58;;;;;;;2.40;1.13;;;0.30;99.90;0.40;98965.00;;;;4632320;30;87573;-64
2022/04/17 03:40:24;;;;;;;4.78;1.50;;;0.30;99.90;0.40;98972.00;;;;4632356;30;87427;-63
2022/04/17 03:42:50;;;;;;;3.25;1.30;;;0.20;99.90;0.40;98962.00;;;;4632509;30;86398;-64
2022/04/17 03:45:17;;;;;;;3.10;1.30;;;0.20;99.90;0.30;98963.00;;;;4632026;30;87026;-64
2022/04/17 03:47:44;;;;;;;5.15;1.27;;;0.20;99.90;0.40;98969.00;;;;4633508;30;87051;-64
2022/04/17 03:50:11;;;;;;;1.83;1.27;;;0.20;99.90;0.40;98983.00;;;;4632219;30;87870;-64
2022/04/17 03:52:50;;;;;;;3.33;1.45;;;0.20;99.90;0.40;98998.00;;;;4632458;30;87810;-64
2022/04/17 03:55:16;;;;;;;2.90;1.40;;;0.20;99.90;0.40;98986.00;;;;4633201;30;87267;-64
2022/04/17 03:57:42;;;;;;;4.55;1.50;;;0.20;99.90;0.40;98984.00;;;;4632937;30;87167;-64
2022/04/17 04:00:13;;;;;;;3.97;1.73;;;0.20;99.90;0.40;98998.00;;;;4632390;30;87799;-64
2022/04/17 04:02:40;;;;;;;1.67;1.10;;;0.20;99.90;0.40;98982.00;;;;4633981;30;88916;-64
2022/04/17 04:05:08;;;;;;;4.35;1.42;;;0.20;99.90;0.40;98982.00;;;;4635992;30;87481;-64
2022/04/17 04:07:38;;;;;;;3.92;1.52;;;0.20;99.90;0.50;99011.00;;;;4635012;30;86459;-64
2022/04/17 04:10:07;;;;;;;3.92;1.77;;;0.30;99.90;0.40;98979.00;;;;4635776;30;87439;-64
2022/04/17 04:12:35;;;;;;;3.70;1.40;;;0.30;99.90;0.50;99006.00;;;;4643562;30;87750;-58
2022/04/17 04:15:02;;;;;;;2.67;1.40;;;0.30;99.90;0.40;98990.00;;;;4651644;30;87881;-58
2022/04/17 04:17:29;;;;;;;2.40;1.30;;;0.20;99.90;0.50;98999.00;;;;4635912;30;86919;-59
2022/04/17 04:19:55;;;;;;;4.10;1.40;;;0.20;99.90;0.50;98996.00;;;;4635556;30;87514;-58
2022/04/17 04:22:21;;;;;;;3.72;1.40;;;0.30;99.90;0.50;98986.00;;;;4635336;30;88835;-59
2022/04/17 04:24:48;;;;;;;4.57;1.50;;;0.30;99.90;0.50;99013.00;;;;4650437;30;88499;-59
2022/04/17 04:29:59;;;;;;;4.28;1.48;;;0.20;99.90;0.40;99011.00;;;;4634805;30;87045;-59
2022/04/17 04:32:25;;;;;;;3.78;1.60;;;0.20;99.90;0.40;99022.00;;;;4635051;30;87774;-59
2022/04/17 04:34:51;;;;;;;6.55;1.63;;;0.20;99.90;0.50;98998.00;;;;4634894;30;87069;-58
2022/04/17 04:37:17;;;;;;;2.67;1.50;;;0.30;99.90;0.50;98999.00;;;;4634866;30;86990;-59
2022/04/17 04:39:43;;;;;;;11.77;1.73;;;0.30;99.90;0.40;99040.00;;;;4634224;30;88006;-59
2022/04/17 04:42:09;;;;;;;3.92;1.23;;;0.20;99.90;0.50;99051.00;;;;4634429;30;87799;-58
2022/04/17 04:44:36;;;;;;;4.57;1.45;;;0.20;99.90;0.40;99029.00;;;;4635379;30;87567;-57
2022/04/17 04:47:02;;;;;;;3.08;1.40;;;0.20;99.90;0.50;99018.00;;;;4634588;30;87078;-56
2022/04/17 04:49:31;;;;;;;2.80;1.42;;;0.30;99.90;0.60;99025.00;;;;4635341;30;87057;-57
2022/04/17 04:52:02;;;;;;;3.13;1.30;;;0.30;99.90;0.70;99017.00;;;;4634780;30;87620;-58
2022/04/17 04:54:30;;;;;;;5.13;1.42;;;0.40;99.90;0.50;99029.00;;;;4635550;30;87191;-56
2022/04/17 04:56:57;;;;;;;3.58;1.50;;;0.40;99.90;0.50;99023.00;;;;4635452;30;86252;-58
2022/04/17 04:59:23;;;;;;;3.40;1.33;;;0.40;99.90;0.60;99052.00;;;;4634970;30;87149;-57
2022/04/17 05:01:51;;;;;;;5.97;1.45;;;0.30;99.90;0.70;99018.00;;;;4634420;30;88257;-58
2022/04/17 05:04:20;;;;;;;3.78;1.50;;;0.40;99.90;0.60;98995.00;;;;4634399;30;88357;-57
2022/04/17 05:06:46;;;;;;;4.00;1.27;;;0.40;99.90;0.50;99042.00;;;;4634949;30;87016;-58
2022/04/17 05:09:13;;;;;;;3.75;1.48;;;0.30;99.90;0.50;99029.00;;;;4634969;30;86950;-58
2022/04/17 05:11:39;;;;;;;6.25;1.45;;;0.30;99.90;0.60;99033.00;;;;4638791;30;88764;-58
2022/04/17 05:14:08;;;;;;;3.38;1.20;;;0.40;99.90;0.60;99015.00;;;;4662363;30;88742;-59
2022/04/17 05:16:35;;;;;;;4.70;1.25;;;0.30;99.90;0.70;98986.00;;;;4640325;30;87347;-57
2022/04/17 05:19:20;;;;;;;3.83;1.45;;;0.50;99.90;1.10;98995.00;;;;4635255;30;87459;-57
2022/04/17 05:21:57;;;;;;;2.33;1.30;;;0.70;99.90;1.10;99057.00;;;;4635384;30;87901;-59
2022/04/17 05:24:23;;;;;;;6.28;1.52;;;0.80;99.90;1.20;99031.00;;;;4647606;30;87130;-60
2022/04/17 05:26:51;;;;;;;4.50;1.67;;;0.80;99.90;1.40;99022.00;;;;4634590;30;87061;-59
2022/04/17 05:29:18;;;;;;;3.97;1.40;;;0.90;99.90;1.30;99052.00;;;;4633005;30;88776;-57
2022/04/17 05:31:44;;;;;;;4.20;1.23;;;0.90;99.90;1.40;99042.00;;;;4634572;30;87586;-59
2022/04/17 05:34:10;;;;;;;4.03;1.45;;;0.90;99.90;1.20;99048.00;;;;4633140;30;88497;-59
2022/04/17 05:36:36;;;;;;;1.65;1.10;;;0.80;99.90;1.30;99025.00;;;;4632681;30;87403;-59
2022/04/17 05:39:03;;;;;;;3.67;1.38;;;0.90;99.90;1.30;99043.00;;;;4634296;30;87132;-58
2022/04/17 05:41:29;;;;;;;3.35;1.30;;;1.00;99.90;1.20;99047.00;;;;4634405;30;87236;-58
2022/04/17 05:43:57;;;;;;;2.92;1.23;;;0.90;99.90;1.40;99039.00;;;;4618294;30;87428;-58
2022/04/17 05:46:27;;;;;;;2.38;1.55;;;1.00;99.90;1.10;99048.00;;;;4634559;30;86697;-58
2022/04/17 05:48:53;;;;;;;2.85;1.30;;;0.90;99.90;1.10;99076.00;;;;4633729;30;87045;-58
2022/04/17 05:51:19;;;;;;;3.13;1.30;;;0.80;99.90;1.10;99065.00;;;;4634253;30;87798;-56
2022/04/17 05:53:46;;;;;;;3.92;1.40;;;0.80;99.90;1.10;99043.00;;;;4632330;30;88114;-58
2022/04/17 05:56:12;;;;;;;2.72;1.30;;;0.80;99.90;1.20;99057.00;;;;4634055;30;87077;-57
2022/04/17 05:58:38;;;;;;;8.40;1.40;;;0.80;99.90;1.20;99034.00;;;;4634360;30;87132;-59
2022/04/17 06:01:04;;;;;;;2.47;1.45;;;0.80;99.90;1.30;99052.00;;;;4634017;30;87574;-57
2022/04/17 06:03:30;;;;;;;4.28;1.67;;;1.00;99.90;1.30;99052.00;;;;4633694;30;87487;-58
2022/04/17 06:05:56;;;;;;;3.55;1.33;;;1.00;99.90;1.40;99038.00;;;;4634410;30;86881;-58
2022/04/17 06:08:24;;;;;;;6.28;1.60;;;1.10;99.90;1.40;99054.00;;;;4634258;30;86911;-57
2022/04/17 06:10:50;;;;;;;2.90;1.40;;;1.10;99.90;1.40;99058.00;;;;4634588;30;86760;-58
2022/04/17 06:13:16;;;;;;;6.97;1.27;;;1.00;99.90;1.40;99058.00;;;;4648001;30;87137;-59
2022/04/17 06:15:43;;;;;;;3.65;1.20;;;1.10;99.90;1.20;99082.00;;;;4646243;30;87020;-59
2022/04/17 06:18:09;;;;;;;16.27;1.83;;;1.00;99.90;1.30;99052.00;;;;4633789;30;87987;-56
2022/04/17 06:20:35;;;;;;;4.93;1.40;;;0.90;99.90;1.30;99044.00;;;;4633493;30;88007;-58
2022/04/17 06:23:01;;;;;;;4.45;1.48;;;1.00;99.90;1.40;99048.00;;;;4632278;30;87515;-58
2022/04/17 06:25:27;;;;;;;3.75;1.60;;;1.10;99.90;1.30;99062.00;;;;4631380;30;87297;-58
2022/04/17 06:27:55;;;;;;;5.55;1.40;;;1.10;99.90;1.30;99077.00;;;;4633479;30;87025;-56
2022/04/17 06:30:22;;;;;;;4.18;1.42;;;1.00;99.90;1.20;99066.00;;;;4633288;30;89186;-58
2022/04/17 06:32:50;;;;;;;5.13;1.60;;;1.00;99.90;1.30;99074.00;;;;4632629;30;87123;-59
2022/04/17 06:35:18;;;;;;;4.03;1.63;;;1.00;99.90;1.50;99076.00;;;;4633000;30;86252;-58
2022/04/17 06:38:02;;;;;;;5.43;1.45;;;1.10;99.90;1.60;99072.00;;;;4632254;30;87160;-56
2022/04/17 06:40:33;;;;;;;3.67;1.70;;;1.20;99.90;1.70;99066.00;;;;4630496;30;87846;-59
2022/04/17 06:43:07;;;;;;;5.97;1.65;;;1.30;99.90;1.80;99065.00;;;;4632272;30;87997;-59
2022/04/17 06:45:35;;;;;;;4.55;1.50;;;1.40;99.90;1.90;99067.00;;;;4632004;30;87608;-59
2022/04/17 06:48:23;;;;;;;4.05;1.23;;;1.60;99.90;1.90;99069.00;;;;4633392;30;88045;-60
2022/04/17 06:50:51;;;;;;;7.57;1.75;;;1.60;99.90;2.20;99065.00;;;;4626971;30;87540;-57
2022/04/17 06:53:18;;;;;;;5.57;1.30;;;1.80;99.90;2.20;99074.00;;;;4632616;30;88292;-58
2022/04/17 06:55:46;;;;;;;5.15;1.40;;;1.80;99.90;2.30;99073.00;;;;4633010;30;86994;-58
2022/04/17 06:58:14;;;;;;;2.47;1.42;;;1.90;99.90;2.50;99076.00;;;;4633245;30;87029;-58
2022/04/17 07:00:40;;;;;;;5.22;2.05;;;2.10;99.90;2.30;99072.00;;;;4632840;30;88494;-59
2022/04/17 07:03:06;;;;;;;3.15;1.48;;;2.00;99.90;2.20;99091.00;;;;4632796;30;88500;-60
2022/04/17 07:05:33;;;;;;;3.80;1.38;;;1.80;99.90;2.10;99082.00;;;;4633145;30;86974;-60
2022/04/17 07:08:02;;;;;;;4.40;1.58;;;1.70;99.90;2.00;99084.00;;;;4632354;30;88048;-59
2022/04/17 07:10:30;;;;;;;6.68;1.65;;;1.70;99.90;2.10;99091.00;;;;4631551;30;87301;-60
2022/04/17 07:12:57;;;;;;;4.00;1.40;;;1.70;99.90;2.00;99076.00;;;;4645664;30;87381;-59
2022/04/17 07:15:26;;;;;;;6.45;1.95;;;1.70;99.90;2.10;99096.00;;;;4649226;30;86983;-58
2022/04/17 07:17:54;;;;;;;2.13;1.30;;;1.80;99.90;2.20;99101.00;;;;4632553;30;87419;-61
2022/04/17 07:20:21;;;;;;;3.90;1.30;;;1.80;99.90;2.30;99095.00;;;;4632648;30;88814;-60
2022/04/17 07:22:47;;;;;;;3.13;1.33;;;2.00;99.90;2.40;99077.00;;;;4636351;30;88263;-60
2022/04/17 07:25:14;;;;;;;2.05;1.20;;;2.00;99.90;2.50;99100.00;;;;4640181;30;86818;-58
2022/04/17 07:27:50;;;;;;;3.25;1.40;;;2.10;99.90;2.40;99132.00;;;;4631265;30;87050;-59
2022/04/17 07:30:19;;;;;;;3.85;1.52;;;2.10;99.90;2.40;99094.00;;;;4632575;30;88754;-58
2022/04/17 07:32:52;;;;;;;3.17;1.15;;;2.10;99.90;2.50;99134.00;;;;4631756;30;88021;-58
2022/04/17 07:35:20;;;;;;;3.30;1.45;;;2.20;99.90;2.60;99117.00;;;;4632349;30;86994;-56
2022/04/17 07:37:57;;;;;;;3.53;1.30;;;2.20;99.90;2.60;99114.00;;;;4630911;30;87076;-57
2022/04/17 07:40:35;;;;;;;4.47;1.30;;;2.20;99.90;2.80;99085.00;;;;4631792;30;87883;-58
2022/04/17 07:43:04;;;;;;;4.13;1.70;;;2.30;99.90;2.80;99103.00;;;;4632497;30;88690;-59
2022/04/17 07:45:32;;;;;;;4.55;1.27;;;2.40;99.90;3.00;99125.00;;;;4631741;30;87498;-58
2022/04/17 07:47:59;;;;;;;5.60;1.35;;;2.50;99.90;3.20;99093.00;;;;4619112;30;87035;-59
2022/04/17 07:50:28;;;;;;;5.25;1.50;;;2.70;99.90;3.30;99091.00;;;;4632800;30;87976;-59
2022/04/17 07:52:54;;;;;;;3.33;1.27;;;2.80;99.90;3.30;99099.00;;;;4631694;30;87079;-59
2022/04/17 07:55:22;;;;;;;2.92;1.45;;;2.80;99.90;3.30;99106.00;;;;4632314;30;87624;-56
2022/04/17 07:57:55;;;;;;;5.60;1.48;;;2.80;99.90;3.50;99099.00;;;;4630677;30;88299;-60
2022/04/17 08:00:24;;;;;;;6.13;1.50;;;3.00;99.90;3.70;99118.00;;;;4631579;30;87743;-58
2022/04/17 08:03:08;;;;;;;3.10;1.58;;;3.20;99.90;4.00;99098.00;;;;4632638;30;87228;-58
2022/04/17 08:05:38;;;;;;;4.43;1.20;;;3.50;99.90;3.90;99102.00;;;;4632842;30;87154;-57
2022/04/17 08:08:08;;;;;;;2.83;1.40;;;3.50;99.90;4.00;99108.00;;;;4631702;30;87692;-59
2022/04/17 08:10:36;;;;;;;4.80;1.35;;;3.50;99.90;3.70;99138.00;;;;4632030;30;87827;-59
2022/04/17 08:13:02;;;;;;;4.18;1.10;;;3.30;99.90;3.70;99135.00;;;;4642133;30;87288;-59
2022/04/17 08:15:29;;;;;;;4.65;1.30;;;3.20;99.90;3.40;99120.00;;;;4631411;30;86239;-59
2022/04/17 08:17:55;;;;;;;4.50;1.40;;;3.10;99.90;3.50;99158.00;;;;4632089;30;87149;-58
2022/04/17 08:20:22;;;;;;;5.57;1.20;;;3.00;99.90;3.50;99129.00;;;;4632809;30;88410;-58
2022/04/17 08:22:48;;;;;;;4.63;1.27;;;3.10;99.90;3.70;99126.00;;;;4635203;30;87954;-61
2022/04/17 08:25:14;;;;;;;5.03;1.42;;;3.20;99.90;3.60;99161.00;;;;4638598;30;87080;-58
2022/04/17 08:27:51;;;;;;;2.05;1.10;;;3.20;99.90;3.70;99163.00;;;;4632523;30;87444;-59
2022/04/17 08:30:22;;;;;;;6.43;1.23;;;3.20;99.90;3.60;99141.00;;;;4630854;30;87775;-60
2022/04/17 08:32:48;;;;;;;2.88;1.45;;;3.10;99.90;3.40;99140.00;;;;4631708;30;87401;-61
2022/04/17 08:35:15;;;;;;;3.90;1.10;;;3.00;99.90;3.40;99168.00;;;;4631201;30;87897;-58
2022/04/17 08:37:43;;;;;;;3.55;1.20;;;3.00;99.90;3.50;99142.00;;;;4631439;30;87048;-60
2022/04/17 08:40:11;;;;;;;1.95;1.20;;;3.10;99.90;3.50;99159.00;;;;4631593;30;87968;-61
2022/04/17 08:42:39;;;;;;;4.43;1.40;;;3.10;99.90;3.60;99103.00;;;;4631936;30;87802;-58
2022/04/17 08:45:10;;;;;;;5.30;1.52;;;3.10;99.90;3.70;99115.00;;;;4631037;30;86998;-58
2022/04/17 08:47:41;;;;;;;4.20;1.30;;;3.20;99.90;3.90;99110.00;;;;4631701;30;87988;-59
2022/04/17 08:50:13;;;;;;;5.37;1.83;;;3.40;99.90;3.80;99109.00;;;;4632714;30;87783;-59
2022/04/17 08:52:41;;;;;;;2.45;1.13;;;3.40;99.90;3.80;99144.00;;;;4634970;30;87250;-59
2022/04/17 08:55:09;;;;;;;2.92;1.20;;;3.40;99.90;3.70;99133.00;;;;4634559;30;86938;-58
2022/04/17 08:57:37;;;;;;;2.65;1.10;;;3.30;99.90;3.90;99093.00;;;;4634854;30;87433;-60
2022/04/17 09:00:08;;;;;;;4.63;1.30;;;3.50;99.90;4.00;99099.00;;;;4633490;30;87814;-58
2022/04/17 09:02:35;;;;;;;5.57;1.27;;;3.60;99.90;4.20;99135.00;;;;4634639;30;88460;-59
2022/04/17 09:05:10;;;;;;;5.13;1.52;;;3.70;99.90;4.20;99137.00;;;;4635069;30;86819;-55
2022/04/17 09:07:49;;;;;;;3.70;1.40;;;3.70;99.90;4.30;99152.00;;;;4635165;30;86954;-60
2022/04/17 09:10:31;;;;;;;5.10;1.52;;;3.80;99.90;4.20;99170.00;;;;4644933;30;88580;-59
2022/04/17 09:13:03;;;;;;;5.05;1.40;;;3.70;99.90;4.10;99132.00;;;;4633715;30;88459;-60
2022/04/17 09:15:32;;;;;;;4.55;1.50;;;3.60;99.90;4.10;99132.00;;;;4632961;30;87039;-59
2022/04/17 09:17:58;;;;;;;2.88;1.45;;;3.60;99.90;4.20;99112.00;;;;4633983;30;87244;-57
2022/04/17 09:20:27;;;;;;;6.70;1.55;;;3.70;99.90;4.40;99119.00;;;;4633630;30;87575;-58
2022/04/17 09:22:56;;;;;;;6.43;1.30;;;3.90;99.90;4.50;99136.00;;;;4638463;30;87647;-59
2022/04/17 09:25:23;;;;;;;3.35;1.63;;;4.00;99.90;4.50;99121.00;;;;4638142;30;87638;-59
2022/04/17 09:28:03;;;;;;;4.25;1.20;;;3.90;99.90;4.40;99160.00;;;;4618542;30;87216;-58
2022/04/17 09:30:39;;;;;;;6.50;1.27;;;3.90;99.90;4.40;99154.00;;;;4633925;30;86994;-59
2022/04/17 09:33:10;;;;;;;3.38;1.48;;;4.00;99.90;4.30;99173.00;;;;4633350;30;87858;-58
2022/04/17 09:35:37;;;;;;;3.22;1.20;;;3.80;99.90;4.20;99147.00;;;;4633171;30;87505;-59
2022/04/17 09:38:06;;;;;;;2.95;1.38;;;3.80;99.90;4.20;99151.00;;;;4633062;30;88266;-59
2022/04/17 09:40:33;;;;;;;7.43;1.27;;;3.80;99.90;4.30;99159.00;;;;4632601;30;87504;-58
2022/04/17 09:43:13;;;;;;;4.25;1.40;;;3.90;99.90;4.40;99156.00;;;;4631687;30;87639;-61
2022/04/17 09:46:00;;;;;;;4.72;1.33;;;3.90;99.90;4.30;99160.00;;;;4633134;30;87061;-59
2022/04/17 09:48:40;;;;;;;5.07;1.20;;;3.90;99.90;4.40;99162.00;;;;4634121;30;87004;-59
2022/04/17 09:51:25;;;;;;;3.88;1.02;;;3.90;99.90;4.50;99173.00;;;;4629217;30;89596;-62
2022/04/17 09:54:05;;;;;;;4.07;1.48;;;4.00;99.90;4.50;99171.00;;;;4631839;30;87609;-61
2022/04/17 09:56:40;;;;;;;14.77;1.55;;;4.00;99.90;4.30;99156.00;;;;4633853;30;86247;-60
2022/04/17 09:59:21;;;;;;;6.10;1.33;;;3.90;99.90;4.40;99173.00;;;;4630729;30;87426;-60
2022/04/17 10:01:50;;;;;;;3.20;1.27;;;4.00;99.90;4.50;99166.00;;;;4632175;30;89283;-58
2022/04/17 10:04:19;;;;;;;2.95;1.30;;;4.10;99.90;4.70;99166.00;;;;4628716;30;88753;-58
2022/04/17 10:06:54;;;;;;;6.32;1.38;;;4.20;99.90;4.90;99152.00;;;;4626699;30;88192;-60
2022/04/17 10:09:21;;;;;;;3.63;1.27;;;4.30;99.90;5.00;99166.00;;;;4631113;30;86897;-59
2022/04/17 10:11:51;;;;;;;5.38;1.10;;;4.40;99.90;5.10;99179.00;;;;4638784;30;87781;-60
2022/04/17 10:14:19;;;;;;;14.05;2.15;;;4.50;99.90;5.00;99171.00;;;;4636535;30;87293;-60
2022/04/17 10:16:48;;;;;;;6.95;1.50;;;4.50;99.90;5.20;99163.00;;;;4632407;30;87817;-57
2022/04/17 10:19:24;;;;;;;5.00;1.42;;;4.70;99.90;5.20;99186.00;;;;4633438;30;87043;-62
2022/04/17 10:21:51;;;;;;;4.63;1.33;;;4.70;99.90;4.90;99177.00;;;;4634057;30;87020;-55
2022/04/17 10:24:20;;;;;;;2.95;1.30;;;4.50;99.90;5.00;99163.00;;;;4632695;30;87787;-57
2022/04/17 10:26:51;;;;;;;3.65;1.20;;;4.60;99.90;5.00;99177.00;;;;4636801;30;87299;-59
2022/04/17 10:29:35;;;;;;;8.13;1.50;;;4.50;99.90;5.00;99164.00;;;;4631343;30;88070;-59
2022/04/17 10:33:01;;;;;;;2.28;1.13;;;4.50;99.90;5.00;99173.00;;;;4658481;30;87710;-58
2022/04/17 10:35:48;;;;;;;6.40;1.05;;;4.50;99.90;5.00;99209.00;;;;4629709;30;88524;-58
2022/04/17 10:38:53;;;;;;;4.80;1.58;;;4.50;99.90;5.00;99193.00;;;;4644358;30;87104;-57
2022/04/17 10:41:21;;;;;;;2.42;1.38;;;4.60;99.90;4.80;99168.00;;;;4632984;30;87298;-54
2022/04/17 10:43:47;;;;;;;3.58;1.17;;;4.50;99.90;4.90;99152.00;;;;4632712;30;87566;-59
2022/04/17 10:46:20;;;;;;;2.72;1.50;;;4.40;99.90;4.90;99164.00;;;;4631268;30;87724;-59
2022/04/17 10:48:52;;;;;;;3.67;1.15;;;4.40;99.90;5.00;99164.00;;;;4632133;30;86272;-58
2022/04/17 10:51:30;;;;;;;2.70;1.30;;;4.40;99.90;5.00;99171.00;;;;4633288;30;86997;-55
2022/04/17 10:54:11;;;;;;;5.53;1.67;;;4.50;99.90;5.00;99167.00;;;;4632784;30;87041;-55
2022/04/17 10:56:42;;;;;;;3.53;1.70;;;4.50;99.90;4.90;99166.00;;;;4632123;30;88176;-58
2022/04/17 10:59:23;;;;;;;6.10;1.65;;;4.60;99.90;5.10;99157.00;;;;4646036;30;87046;-52
2022/04/17 11:01:53;;;;;;;5.87;1.77;;;4.60;99.90;5.10;99164.00;;;;4631866;30;87232;-58
2022/04/17 11:04:28;;;;;;;11.63;1.43;;;4.70;99.90;5.20;99182.00;;;;4631975;30;88526;-58
2022/04/17 11:07:04;;;;;;;3.00;1.35;;;4.70;99.90;5.30;99163.00;;;;4632050;30;87344;-57
2022/04/17 11:09:33;;;;;;;2.60;1.40;;;4.70;99.90;5.30;99165.00;;;;4632489;30;87045;-59
2022/04/17 11:12:18;;;;;;;4.63;1.25;;;4.70;99.90;5.40;99160.00;;;;4638933;30;87019;-58
2022/04/17 11:15:02;;;;;;;6.80;1.45;;;4.90;99.90;5.30;99166.00;;;;4633535;30;88145;-56
2022/04/17 11:17:32;;;;;;;3.83;1.30;;;4.80;99.90;5.40;99163.00;;;;4632007;30;88038;-56
2022/04/17 11:20:00;;;;;;;6.90;1.30;;;4.90;99.90;5.50;99155.00;;;;4632087;30;86998;-56
2022/04/17 11:22:33;;;;;;;3.03;1.20;;;4.90;99.90;5.40;99163.00;;;;4616528;30;88069;-60
2022/04/17 11:25:00;;;;;;;3.35;1.40;;;4.90;99.90;5.60;99145.00;;;;4632468;30;89462;-58
2022/04/17 11:27:43;;;;;;;2.85;1.20;;;5.00;99.90;5.80;99145.00;;;;4632508;30;87763;-61